sensor_id;sensor_type;location;lat;lon;timestamp;pressure;altitude;pressure_sealevel;temperature;humidity
48555;BME280;34336;48.270;16.716;2023-03-16T00:00:05;109325.25;;;18.16;72.15
48555;BME280;34336;48.270;16.716;2023-03-16T00:02:34;109325.25;;;18.16;72.04
48555;BME280;34336;48.270;16.716;2023-03-16T00:05:01;109325.25;;;18.16;72.35
48555;BME280;34336;48.270;16.716;2023-03-16T00:07:27;109325.25;;;18.16;72.38
48555;BME280;34336;48.270;16.716;2023-03-16T00:09:54;109325.25;;;18.16;72.30
48555;BME280;34336;48.270;16.716;2023-03-16T00:12:21;109325.25;;;18.16;72.30
48555;BME280;34336;48.270;16.716;2023-03-16T00:14:48;109325.25;;;18.16;72.49
48555;BME280;34336;48.270;16.716;2023-03-16T00:17:16;109325.25;;;18.16;72.68
48555;BME280;34336;48.270;16.716;2023-03-16T00:19:47;109325.25;;;18.16;72.74
48555;BME280;34336;48.270;16.716;2023-03-16T00:22:14;109325.25;;;18.16;73.25
48555;BME280;34336;48.270;16.716;2023-03-16T00:24:41;109325.25;;;18.16;72.86
48555;BME280;34336;48.270;16.716;2023-03-16T00:27:11;109325.25;;;18.16;73.02
48555;BME280;34336;48.270;16.716;2023-03-16T00:29:41;109325.25;;;18.16;73.27
48555;BME280;34336;48.270;16.716;2023-03-16T00:32:16;109325.25;;;18.16;73.21
48555;BME280;34336;48.270;16.716;2023-03-16T00:34:43;109325.25;;;18.16;73.00
48555;BME280;34336;48.270;16.716;2023-03-16T00:37:10;109325.25;;;18.16;73.36
48555;BME280;34336;48.270;16.716;2023-03-16T00:39:41;109325.25;;;18.16;73.01
48555;BME280;34336;48.270;16.716;2023-03-16T00:42:11;109325.25;;;18.16;73.21
48555;BME280;34336;48.270;16.716;2023-03-16T00:44:38;109325.25;;;18.16;73.03
48555;BME280;34336;48.270;16.716;2023-03-16T00:47:07;109325.25;;;18.16;73.32
48555;BME280;34336;48.270;16.716;2023-03-16T00:49:34;109325.25;;;18.16;73.52
48555;BME280;34336;48.270;16.716;2023-03-16T00:52:01;109325.25;;;18.16;73.81
48555;BME280;34336;48.270;16.716;2023-03-16T00:54:28;109325.25;;;18.16;73.96
48555;BME280;34336;48.270;16.716;2023-03-16T00:56:55;109325.25;;;18.16;73.62
48555;BME280;34336;48.270;16.716;2023-03-16T00:59:21;109325.25;;;18.16;74.15
48555;BME280;34336;48.270;16.716;2023-03-16T01:01:48;109325.25;;;18.16;73.97
48555;BME280;34336;48.270;16.716;2023-03-16T01:04:14;109325.25;;;18.16;73.91
48555;BME280;34336;48.270;16.716;2023-03-16T01:06:41;109325.25;;;18.16;74.25
48555;BME280;34336;48.270;16.716;2023-03-16T01:09:07;109325.25;;;18.16;73.96
48555;BME280;34336;48.270;16.716;2023-03-16T01:11:35;109325.25;;;18.16;73.97
48555;BME280;34336;48.270;16.716;2023-03-16T01:14:01;109325.25;;;18.16;73.83
48555;BME280;34336;48.270;16.716;2023-03-16T01:16:29;109325.25;;;18.16;73.34
48555;BME280;34336;48.270;16.716;2023-03-16T01:18:55;109325.25;;;18.16;73.67
48555;BME280;34336;48.270;16.716;2023-03-16T01:21:22;109325.25;;;18.16;73.52
48555;BME280;34336;48.270;16.716;2023-03-16T01:23:49;109325.25;;;18.16;73.19
48555;BME280;34336;48.270;16.716;2023-03-16T01:26:16;109325.25;;;18.16;73.47
48555;BME280;34336;48.270;16.716;2023-03-16T01:28:45;109325.25;;;18.16;73.40
48555;BME280;34336;48.270;16.716;2023-03-16T01:31:12;109325.25;;;18.16;73.44
48555;BME280;34336;48.270;16.716;2023-03-16T01:33:40;109325.25;;;18.16;73.05
48555;BME280;34336;48.270;16.716;2023-03-16T01:36:14;109325.25;;;18.16;73.08
48555;BME280;34336;48.270;16.716;2023-03-16T01:39:03;109325.25;;;18.16;72.62
48555;BME280;34336;48.270;16.716;2023-03-16T01:41:40;109325.25;;;18.16;72.83
48555;BME280;34336;48.270;16.716;2023-03-16T01:44:14;109325.25;;;18.16;72.87
48555;BME280;34336;48.270;16.716;2023-03-16T01:46:42;109325.25;;;18.16;72.72
48555;BME280;34336;48.270;16.716;2023-03-16T01:49:21;109325.25;;;18.16;73.12
48555;BME280;34336;48.270;16.716;2023-03-16T01:56:54;109325.25;;;18.16;73.45
48555;BME280;34336;48.270;16.716;2023-03-16T01:59:23;109325.25;;;18.16;73.25
48555;BME280;34336;48.270;16.716;2023-03-16T02:01:52;109325.25;;;18.16;73.43
48555;BME280;34336;48.270;16.716;2023-03-16T02:04:39;109325.25;;;18.16;73.54
48555;BME280;34336;48.270;16.716;2023-03-16T02:07:08;109325.25;;;18.16;73.47
48555;BME280;34336;48.270;16.716;2023-03-16T02:09:36;109325.25;;;18.16;73.81
48555;BME280;34336;48.270;16.716;2023-03-16T02:12:04;109325.25;;;18.16;73.79
48555;BME280;34336;48.270;16.716;2023-03-16T02:14:36;109325.25;;;18.16;74.07
48555;BME280;34336;48.270;16.716;2023-03-16T02:17:03;109325.25;;;18.16;73.69
48555;BME280;34336;48.270;16.716;2023-03-16T02:22:15;109325.25;;;18.16;73.98
48555;BME280;34336;48.270;16.716;2023-03-16T02:24:41;109325.25;;;18.16;74.15
48555;BME280;34336;48.270;16.716;2023-03-16T02:27:09;109325.25;;;18.16;74.61
48555;BME280;34336;48.270;16.716;2023-03-16T02:29:52;109325.25;;;18.16;74.66
48555;BME280;34336;48.270;16.716;2023-03-16T02:32:20;109325.25;;;18.16;74.52
48555;BME280;34336;48.270;16.716;2023-03-16T02:34:48;109325.25;;;18.16;75.19
48555;BME280;34336;48.270;16.716;2023-03-16T02:37:15;109325.25;;;18.16;74.68
48555;BME280;34336;48.270;16.716;2023-03-16T02:39:42;109325.25;;;18.16;75.22
48555;BME280;34336;48.270;16.716;2023-03-16T02:42:12;109325.25;;;18.16;74.86
48555;BME280;34336;48.270;16.716;2023-03-16T02:44:39;109325.25;;;18.16;75.07
48555;BME280;34336;48.270;16.716;2023-03-16T02:47:10;109325.25;;;18.16;75.74
48555;BME280;34336;48.270;16.716;2023-03-16T02:49:42;109325.25;;;18.16;75.56
48555;BME280;34336;48.270;16.716;2023-03-16T02:52:10;109325.25;;;18.16;75.09
48555;BME280;34336;48.270;16.716;2023-03-16T02:54:37;109325.25;;;18.16;75.18
48555;BME280;34336;48.270;16.716;2023-03-16T02:57:03;109325.25;;;18.16;75.61
48555;BME280;34336;48.270;16.716;2023-03-16T02:59:31;109325.25;;;18.16;75.38
48555;BME280;34336;48.270;16.716;2023-03-16T03:01:58;109325.25;;;18.16;75.20
48555;BME280;34336;48.270;16.716;2023-03-16T03:04:24;109325.25;;;18.16;75.63
48555;BME280;34336;48.270;16.716;2023-03-16T03:06:51;109325.25;;;18.16;75.32
48555;BME280;34336;48.270;16.716;2023-03-16T03:09:18;109325.25;;;18.16;75.63
48555;BME280;34336;48.270;16.716;2023-03-16T03:11:46;109325.25;;;18.16;75.72
48555;BME280;34336;48.270;16.716;2023-03-16T03:14:13;109325.25;;;18.16;75.68
48555;BME280;34336;48.270;16.716;2023-03-16T03:16:43;109325.25;;;18.16;75.44
48555;BME280;34336;48.270;16.716;2023-03-16T03:19:14;109325.25;;;18.16;75.55
48555;BME280;34336;48.270;16.716;2023-03-16T03:21:40;109325.25;;;18.16;75.75
48555;BME280;34336;48.270;16.716;2023-03-16T03:24:07;109325.25;;;18.16;75.64
48555;BME280;34336;48.270;16.716;2023-03-16T03:26:35;109325.25;;;18.16;76.02
48555;BME280;34336;48.270;16.716;2023-03-16T03:29:07;109325.25;;;18.16;76.01
48555;BME280;34336;48.270;16.716;2023-03-16T03:31:33;109325.25;;;18.16;75.61
48555;BME280;34336;48.270;16.716;2023-03-16T03:34:00;109325.25;;;18.16;76.13
48555;BME280;34336;48.270;16.716;2023-03-16T03:36:33;109325.25;;;18.16;75.94
48555;BME280;34336;48.270;16.716;2023-03-16T03:39:00;109325.25;;;18.16;76.09
48555;BME280;34336;48.270;16.716;2023-03-16T03:41:32;109325.25;;;18.16;76.45
48555;BME280;34336;48.270;16.716;2023-03-16T03:44:00;109325.25;;;18.16;76.95
48555;BME280;34336;48.270;16.716;2023-03-16T03:46:27;109325.25;;;18.16;77.09
48555;BME280;34336;48.270;16.716;2023-03-16T03:48:55;109325.25;;;18.16;76.92
48555;BME280;34336;48.270;16.716;2023-03-16T03:51:30;109325.25;;;18.16;76.81
48555;BME280;34336;48.270;16.716;2023-03-16T03:54:01;109325.25;;;18.16;76.88
48555;BME280;34336;48.270;16.716;2023-03-16T03:56:50;109325.25;;;18.16;77.43
48555;BME280;34336;48.270;16.716;2023-03-16T03:59:18;109325.25;;;18.16;77.58
48555;BME280;34336;48.270;16.716;2023-03-16T04:02:11;109325.25;;;18.16;78.11
48555;BME280;34336;48.270;16.716;2023-03-16T04:04:43;109325.25;;;18.16;77.62
48555;BME280;34336;48.270;16.716;2023-03-16T04:07:11;109325.25;;;18.16;77.81
48555;BME280;34336;48.270;16.716;2023-03-16T04:09:40;109325.25;;;18.16;78.69
48555;BME280;34336;48.270;16.716;2023-03-16T04:12:13;109325.25;;;18.16;78.32
48555;BME280;34336;48.270;16.716;2023-03-16T04:14:41;109325.25;;;18.16;78.90
48555;BME280;34336;48.270;16.716;2023-03-16T04:17:08;109325.25;;;18.16;78.64
48555;BME280;34336;48.270;16.716;2023-03-16T04:19:37;109325.25;;;18.16;79.45
48555;BME280;34336;48.270;16.716;2023-03-16T04:22:08;109325.25;;;18.16;81.95
48555;BME280;34336;48.270;16.716;2023-03-16T04:24:35;109325.25;;;18.16;79.98
48555;BME280;34336;48.270;16.716;2023-03-16T04:27:02;109325.25;;;18.16;79.12
48555;BME280;34336;48.270;16.716;2023-03-16T04:29:28;109325.25;;;18.16;80.15
48555;BME280;34336;48.270;16.716;2023-03-16T04:31:56;109325.25;;;18.16;80.14
48555;BME280;34336;48.270;16.716;2023-03-16T04:34:25;109325.25;;;18.16;80.46
48555;BME280;34336;48.270;16.716;2023-03-16T04:36:55;109325.25;;;18.16;80.33
48555;BME280;34336;48.270;16.716;2023-03-16T04:39:22;109325.25;;;18.16;80.30
48555;BME280;34336;48.270;16.716;2023-03-16T04:41:49;109325.25;;;18.16;80.09
48555;BME280;34336;48.270;16.716;2023-03-16T04:44:20;109325.25;;;18.16;79.85
48555;BME280;34336;48.270;16.716;2023-03-16T04:46:48;109325.25;;;18.16;79.90
48555;BME280;34336;48.270;16.716;2023-03-16T04:49:16;109325.25;;;18.16;79.85
48555;BME280;34336;48.270;16.716;2023-03-16T04:51:44;109325.25;;;18.16;79.69
48555;BME280;34336;48.270;16.716;2023-03-16T04:54:16;109325.25;;;18.16;80.49
48555;BME280;34336;48.270;16.716;2023-03-16T04:56:43;109325.25;;;18.16;80.37
48555;BME280;34336;48.270;16.716;2023-03-16T04:59:26;109325.25;;;18.16;81.03
48555;BME280;34336;48.270;16.716;2023-03-16T05:02:01;109325.25;;;18.16;81.51
48555;BME280;34336;48.270;16.716;2023-03-16T05:04:30;109325.25;;;18.16;81.35
48555;BME280;34336;48.270;16.716;2023-03-16T05:06:56;109325.25;;;18.16;81.57
48555;BME280;34336;48.270;16.716;2023-03-16T05:09:27;109325.25;;;18.16;81.57
48555;BME280;34336;48.270;16.716;2023-03-16T05:11:54;109325.25;;;18.16;81.65
48555;BME280;34336;48.270;16.716;2023-03-16T05:14:20;109325.25;;;18.16;81.44
48555;BME280;34336;48.270;16.716;2023-03-16T05:16:57;109325.25;;;18.16;81.20
48555;BME280;34336;48.270;16.716;2023-03-16T05:19:24;109325.25;;;18.16;80.17
48555;BME280;34336;48.270;16.716;2023-03-16T05:21:51;109325.25;;;18.16;78.46
48555;BME280;34336;48.270;16.716;2023-03-16T05:24:17;109325.25;;;18.16;76.31
48555;BME280;34336;48.270;16.716;2023-03-16T05:26:44;109325.25;;;18.16;73.53
48555;BME280;34336;48.270;16.716;2023-03-16T05:29:13;109325.25;;;18.16;70.99
48555;BME280;34336;48.270;16.716;2023-03-16T05:31:40;109325.25;;;18.16;68.60
48555;BME280;34336;48.270;16.716;2023-03-16T05:34:13;109325.25;;;18.16;66.95
48555;BME280;34336;48.270;16.716;2023-03-16T05:36:40;109325.25;;;18.16;64.85
48555;BME280;34336;48.270;16.716;2023-03-16T05:39:11;109325.25;;;18.16;63.80
48555;BME280;34336;48.270;16.716;2023-03-16T05:41:43;109325.25;;;18.16;63.45
48555;BME280;34336;48.270;16.716;2023-03-16T05:44:21;109325.25;;;18.16;62.45
48555;BME280;34336;48.270;16.716;2023-03-16T05:47:02;109325.25;;;18.16;60.36
48555;BME280;34336;48.270;16.716;2023-03-16T05:49:31;109325.25;;;18.16;59.66
48555;BME280;34336;48.270;16.716;2023-03-16T05:52:00;109325.25;;;18.16;59.28
48555;BME280;34336;48.270;16.716;2023-03-16T05:54:29;109325.25;;;18.16;59.46
48555;BME280;34336;48.270;16.716;2023-03-16T05:56:56;109325.25;;;18.16;59.86
48555;BME280;34336;48.270;16.716;2023-03-16T05:59:23;109325.25;;;18.16;56.96
48555;BME280;34336;48.270;16.716;2023-03-16T06:01:53;109325.25;;;18.16;57.41
48555;BME280;34336;48.270;16.716;2023-03-16T06:04:20;109325.25;;;18.16;54.14
48555;BME280;34336;48.270;16.716;2023-03-16T06:06:47;109325.25;;;18.16;54.55
48555;BME280;34336;48.270;16.716;2023-03-16T06:09:20;109325.25;;;18.16;52.68
48555;BME280;34336;48.270;16.716;2023-03-16T06:11:46;109325.25;;;18.16;51.88
48555;BME280;34336;48.270;16.716;2023-03-16T06:14:15;109325.25;;;18.16;52.78
48555;BME280;34336;48.270;16.716;2023-03-16T06:16:42;109325.25;;;18.16;52.76
48555;BME280;34336;48.270;16.716;2023-03-16T06:19:09;109325.25;;;18.16;53.50
48555;BME280;34336;48.270;16.716;2023-03-16T06:21:36;109325.25;;;18.16;53.75
48555;BME280;34336;48.270;16.716;2023-03-16T06:24:08;109325.25;;;18.16;51.75
48555;BME280;34336;48.270;16.716;2023-03-16T06:26:35;109325.25;;;18.16;52.86
48555;BME280;34336;48.270;16.716;2023-03-16T06:29:05;109325.25;;;18.16;51.46
48555;BME280;34336;48.270;16.716;2023-03-16T06:31:33;109325.25;;;18.16;51.09
48555;BME280;34336;48.270;16.716;2023-03-16T06:34:01;109325.25;;;18.16;51.19
48555;BME280;34336;48.270;16.716;2023-03-16T06:36:29;109325.25;;;18.16;52.34
48555;BME280;34336;48.270;16.716;2023-03-16T06:38:58;109325.25;;;18.16;51.60
48555;BME280;34336;48.270;16.716;2023-03-16T06:41:30;109325.25;;;18.16;50.69
48555;BME280;34336;48.270;16.716;2023-03-16T06:43:57;109325.25;;;18.16;50.82
48555;BME280;34336;48.270;16.716;2023-03-16T06:46:23;109325.25;;;18.16;51.11
48555;BME280;34336;48.270;16.716;2023-03-16T06:48:50;109325.25;;;18.16;52.90
48555;BME280;34336;48.270;16.716;2023-03-16T06:51:18;109325.25;;;18.16;52.72
48555;BME280;34336;48.270;16.716;2023-03-16T06:53:45;109325.25;;;18.16;50.87
48555;BME280;34336;48.270;16.716;2023-03-16T06:56:12;109325.25;;;18.16;48.74
48555;BME280;34336;48.270;16.716;2023-03-16T06:58:41;109325.25;;;18.16;49.76
48555;BME280;34336;48.270;16.716;2023-03-16T07:01:08;109325.25;;;18.16;49.55
48555;BME280;34336;48.270;16.716;2023-03-16T07:03:34;109325.25;;;18.16;50.23
48555;BME280;34336;48.270;16.716;2023-03-16T07:06:08;109325.25;;;18.16;49.00
48555;BME280;34336;48.270;16.716;2023-03-16T07:08:35;109325.25;;;18.16;47.20
48555;BME280;34336;48.270;16.716;2023-03-16T07:11:01;109325.25;;;18.16;48.42
48555;BME280;34336;48.270;16.716;2023-03-16T07:13:28;109325.25;;;18.16;47.64
48555;BME280;34336;48.270;16.716;2023-03-16T07:15:55;109325.25;;;18.16;47.29
48555;BME280;34336;48.270;16.716;2023-03-16T07:18:23;109325.25;;;18.16;47.41
48555;BME280;34336;48.270;16.716;2023-03-16T07:20:52;109325.25;;;18.16;46.01
48555;BME280;34336;48.270;16.716;2023-03-16T07:23:21;109325.25;;;18.16;46.05
48555;BME280;34336;48.270;16.716;2023-03-16T07:25:51;109325.25;;;18.16;47.21
48555;BME280;34336;48.270;16.716;2023-03-16T07:28:18;109325.25;;;18.16;44.74
48555;BME280;34336;48.270;16.716;2023-03-16T07:30:45;109325.25;;;18.16;44.55
48555;BME280;34336;48.270;16.716;2023-03-16T07:33:32;109325.25;;;18.16;46.42
48555;BME280;34336;48.270;16.716;2023-03-16T07:36:03;109325.25;;;18.16;44.07
48555;BME280;34336;48.270;16.716;2023-03-16T07:38:35;109325.25;;;18.16;45.39
48555;BME280;34336;48.270;16.716;2023-03-16T07:41:01;109325.25;;;18.16;45.49
48555;BME280;34336;48.270;16.716;2023-03-16T07:43:28;109325.25;;;18.16;47.21
48555;BME280;34336;48.270;16.716;2023-03-16T07:45:55;109325.25;;;18.16;46.77
48555;BME280;34336;48.270;16.716;2023-03-16T07:48:23;109325.25;;;18.16;46.94
48555;BME280;34336;48.270;16.716;2023-03-16T07:50:54;109325.25;;;18.16;45.82
48555;BME280;34336;48.270;16.716;2023-03-16T07:53:22;109325.25;;;18.16;44.73
48555;BME280;34336;48.270;16.716;2023-03-16T07:55:55;109325.25;;;18.16;42.64
48555;BME280;34336;48.270;16.716;2023-03-16T07:58:22;109325.25;;;18.16;40.91
48555;BME280;34336;48.270;16.716;2023-03-16T08:00:49;109325.25;;;18.16;43.25
48555;BME280;34336;48.270;16.716;2023-03-16T08:03:17;109325.25;;;18.16;43.72
48555;BME280;34336;48.270;16.716;2023-03-16T08:05:45;109325.25;;;18.16;42.38
48555;BME280;34336;48.270;16.716;2023-03-16T08:08:14;109325.25;;;18.16;43.93
48555;BME280;34336;48.270;16.716;2023-03-16T08:10:41;109325.25;;;18.16;40.87
48555;BME280;34336;48.270;16.716;2023-03-16T08:13:12;109325.25;;;18.16;41.79
48555;BME280;34336;48.270;16.716;2023-03-16T08:15:44;109325.25;;;18.16;41.16
48555;BME280;34336;48.270;16.716;2023-03-16T08:18:18;109325.25;;;18.16;43.30
48555;BME280;34336;48.270;16.716;2023-03-16T08:20:44;109325.25;;;18.16;42.28
48555;BME280;34336;48.270;16.716;2023-03-16T08:23:11;109325.25;;;18.16;42.80
48555;BME280;34336;48.270;16.716;2023-03-16T08:25:39;109325.25;;;18.16;41.27
48555;BME280;34336;48.270;16.716;2023-03-16T08:28:11;109325.25;;;18.16;41.91
48555;BME280;34336;48.270;16.716;2023-03-16T08:30:48;109325.25;;;18.16;41.28
48555;BME280;34336;48.270;16.716;2023-03-16T08:33:35;109325.25;;;18.16;41.68
48555;BME280;34336;48.270;16.716;2023-03-16T08:36:04;109325.25;;;18.16;42.25
48555;BME280;34336;48.270;16.716;2023-03-16T08:38:31;109325.25;;;18.16;43.98
48555;BME280;34336;48.270;16.716;2023-03-16T08:41:03;109325.25;;;18.16;41.69
48555;BME280;34336;48.270;16.716;2023-03-16T08:43:31;109325.25;;;18.16;42.62
48555;BME280;34336;48.270;16.716;2023-03-16T08:45:59;109325.25;;;18.16;41.93
48555;BME280;34336;48.270;16.716;2023-03-16T08:48:36;109325.25;;;18.16;41.59
48555;BME280;34336;48.270;16.716;2023-03-16T08:51:03;109325.25;;;18.16;41.30
48555;BME280;34336;48.270;16.716;2023-03-16T08:53:31;109325.25;;;18.16;41.39
48555;BME280;34336;48.270;16.716;2023-03-16T08:56:01;109325.25;;;18.16;41.13
48555;BME280;34336;48.270;16.716;2023-03-16T08:58:28;109325.25;;;18.16;41.66
48555;BME280;34336;48.270;16.716;2023-03-16T09:00:55;109325.25;;;18.16;41.18
48555;BME280;34336;48.270;16.716;2023-03-16T09:03:22;109325.25;;;18.16;42.26
48555;BME280;34336;48.270;16.716;2023-03-16T09:05:48;109325.25;;;18.16;42.92
48555;BME280;34336;48.270;16.716;2023-03-16T09:08:15;109325.25;;;18.16;42.48
48555;BME280;34336;48.270;16.716;2023-03-16T09:10:42;109325.25;;;18.16;43.40
48555;BME280;34336;48.270;16.716;2023-03-16T09:13:08;109325.25;;;18.16;43.01
48555;BME280;34336;48.270;16.716;2023-03-16T09:15:35;109325.25;;;18.16;41.54
48555;BME280;34336;48.270;16.716;2023-03-16T09:18:02;109325.25;;;18.16;40.59
48555;BME280;34336;48.270;16.716;2023-03-16T09:20:29;109325.25;;;18.16;41.05
48555;BME280;34336;48.270;16.716;2023-03-16T09:22:58;109325.25;;;18.16;40.27
48555;BME280;34336;48.270;16.716;2023-03-16T09:25:25;109325.25;;;18.16;41.54
48555;BME280;34336;48.270;16.716;2023-03-16T09:27:51;109325.25;;;18.16;40.14
48555;BME280;34336;48.270;16.716;2023-03-16T09:30:19;109325.25;;;18.16;41.37
48555;BME280;34336;48.270;16.716;2023-03-16T09:32:46;109325.25;;;18.16;39.60
48555;BME280;34336;48.270;16.716;2023-03-16T09:35:14;109325.25;;;18.16;40.42
48555;BME280;34336;48.270;16.716;2023-03-16T09:37:40;109325.25;;;18.16;39.60
48555;BME280;34336;48.270;16.716;2023-03-16T09:40:20;109325.25;;;18.16;39.49
48555;BME280;34336;48.270;16.716;2023-03-16T09:42:54;109325.25;;;18.16;39.75
48555;BME280;34336;48.270;16.716;2023-03-16T09:45:26;109325.25;;;18.16;41.16
48555;BME280;34336;48.270;16.716;2023-03-16T09:47:59;109325.25;;;18.16;41.35
48555;BME280;34336;48.270;16.716;2023-03-16T09:50:28;109325.25;;;18.16;39.90
48555;BME280;34336;48.270;16.716;2023-03-16T09:55:39;109325.25;;;18.16;41.36
48555;BME280;34336;48.270;16.716;2023-03-16T09:58:15;109325.25;;;18.16;40.69
48555;BME280;34336;48.270;16.716;2023-03-16T10:06:00;109325.25;;;18.16;41.24
48555;BME280;34336;48.270;16.716;2023-03-16T10:08:37;109325.25;;;18.16;41.28
48555;BME280;34336;48.270;16.716;2023-03-16T10:11:23;109325.25;;;18.16;40.87
48555;BME280;34336;48.270;16.716;2023-03-16T10:18:49;109325.25;;;18.16;40.45
48555;BME280;34336;48.270;16.716;2023-03-16T10:21:19;109325.25;;;18.16;39.49
48555;BME280;34336;48.270;16.716;2023-03-16T10:23:46;109325.25;;;18.16;39.33
48555;BME280;34336;48.270;16.716;2023-03-16T10:26:16;109325.25;;;18.16;39.40
48555;BME280;34336;48.270;16.716;2023-03-16T10:28:45;109325.25;;;18.16;39.62
48555;BME280;34336;48.270;16.716;2023-03-16T10:31:11;109325.25;;;18.16;39.74
48555;BME280;34336;48.270;16.716;2023-03-16T10:33:39;109325.25;;;18.16;39.85
48555;BME280;34336;48.270;16.716;2023-03-16T10:36:13;109325.25;;;18.16;38.88
48555;BME280;34336;48.270;16.716;2023-03-16T10:38:57;109325.25;;;18.16;38.31
48555;BME280;34336;48.270;16.716;2023-03-16T10:41:28;109325.25;;;18.16;39.35
48555;BME280;34336;48.270;16.716;2023-03-16T10:43:57;109325.25;;;18.16;39.13
48555;BME280;34336;48.270;16.716;2023-03-16T10:46:25;109325.25;;;18.16;39.00
48555;BME280;34336;48.270;16.716;2023-03-16T10:48:59;109325.25;;;18.16;39.60
48555;BME280;34336;48.270;16.716;2023-03-16T10:51:35;109325.25;;;18.16;38.55
48555;BME280;34336;48.270;16.716;2023-03-16T10:54:13;109325.25;;;18.16;38.29
48555;BME280;34336;48.270;16.716;2023-03-16T10:56:40;109325.25;;;18.16;37.79
48555;BME280;34336;48.270;16.716;2023-03-16T11:01:53;109325.25;;;18.16;37.72
48555;BME280;34336;48.270;16.716;2023-03-16T11:04:19;109325.25;;;18.16;37.52
48555;BME280;34336;48.270;16.716;2023-03-16T11:06:55;109325.25;;;18.16;39.08
48555;BME280;34336;48.270;16.716;2023-03-16T11:09:41;109325.25;;;18.16;37.09
48555;BME280;34336;48.270;16.716;2023-03-16T11:12:12;109325.25;;;18.16;36.75
48555;BME280;34336;48.270;16.716;2023-03-16T11:14:43;109325.25;;;18.16;37.36
48555;BME280;34336;48.270;16.716;2023-03-16T11:22:18;109325.25;;;18.16;37.20
48555;BME280;34336;48.270;16.716;2023-03-16T11:27:33;109325.25;;;18.16;35.42
48555;BME280;34336;48.270;16.716;2023-03-16T11:30:14;109325.25;;;18.16;35.30
48555;BME280;34336;48.270;16.716;2023-03-16T11:32:43;109325.25;;;18.16;36.68
48555;BME280;34336;48.270;16.716;2023-03-16T11:35:15;109325.25;;;18.16;36.50
48555;BME280;34336;48.270;16.716;2023-03-16T11:43:32;109325.25;;;18.16;37.86
48555;BME280;34336;48.270;16.716;2023-03-16T11:45:36;109325.25;;;18.16;37.06
48555;BME280;34336;48.270;16.716;2023-03-16T11:48:25;109325.25;;;18.16;36.25
48555;BME280;34336;48.270;16.716;2023-03-16T11:51:00;109325.25;;;18.16;36.55
48555;BME280;34336;48.270;16.716;2023-03-16T11:53:32;109325.25;;;18.16;36.60
48555;BME280;34336;48.270;16.716;2023-03-16T12:13:59;109325.25;;;18.16;34.53
48555;BME280;34336;48.270;16.716;2023-03-16T12:16:38;109325.25;;;18.16;34.80
48555;BME280;34336;48.270;16.716;2023-03-16T12:19:22;109325.25;;;18.16;35.48
48555;BME280;34336;48.270;16.716;2023-03-16T12:21:56;109325.25;;;18.16;34.26
48555;BME280;34336;48.270;16.716;2023-03-16T12:24:27;109325.25;;;18.16;34.18
48555;BME280;34336;48.270;16.716;2023-03-16T12:26:55;109325.25;;;18.16;33.16
48555;BME280;34336;48.270;16.716;2023-03-16T12:29:33;109325.25;;;18.16;35.33
48555;BME280;34336;48.270;16.716;2023-03-16T12:32:08;109325.25;;;18.16;35.99
48555;BME280;34336;48.270;16.716;2023-03-16T12:34:47;109325.25;;;18.16;36.01
48555;BME280;34336;48.270;16.716;2023-03-16T12:37:20;109325.25;;;18.16;35.86
48555;BME280;34336;48.270;16.716;2023-03-16T12:45:02;109325.25;;;18.16;36.44
48555;BME280;34336;48.270;16.716;2023-03-16T12:50:06;109325.25;;;18.16;35.08
48555;BME280;34336;48.270;16.716;2023-03-16T12:52:44;109325.25;;;18.16;35.42
48555;BME280;34336;48.270;16.716;2023-03-16T12:55:12;109325.25;;;18.16;34.98
48555;BME280;34336;48.270;16.716;2023-03-16T12:57:40;109325.25;;;18.16;35.68
48555;BME280;34336;48.270;16.716;2023-03-16T13:00:07;109325.25;;;18.16;35.46
48555;BME280;34336;48.270;16.716;2023-03-16T13:02:36;109325.25;;;18.16;35.66
48555;BME280;34336;48.270;16.716;2023-03-16T13:05:08;109325.25;;;18.16;35.66
48555;BME280;34336;48.270;16.716;2023-03-16T13:07:35;109325.25;;;18.16;35.02
48555;BME280;34336;48.270;16.716;2023-03-16T13:10:05;109325.25;;;18.16;35.64
48555;BME280;34336;48.270;16.716;2023-03-16T13:12:36;109325.25;;;18.16;35.17
48555;BME280;34336;48.270;16.716;2023-03-16T13:17:47;109325.25;;;18.16;34.00
48555;BME280;34336;48.270;16.716;2023-03-16T13:20:33;109325.25;;;18.16;33.61
48555;BME280;34336;48.270;16.716;2023-03-16T13:25:58;109325.25;;;18.16;35.65
48555;BME280;34336;48.270;16.716;2023-03-16T13:28:27;109325.25;;;18.16;35.75
48555;BME280;34336;48.270;16.716;2023-03-16T13:30:55;109325.25;;;18.16;36.85
48555;BME280;34336;48.270;16.716;2023-03-16T13:33:32;109325.25;;;18.16;36.62
48555;BME280;34336;48.270;16.716;2023-03-16T13:36:02;109325.25;;;18.16;35.34
48555;BME280;34336;48.270;16.716;2023-03-16T13:38:30;109325.25;;;18.16;35.22
48555;BME280;34336;48.270;16.716;2023-03-16T13:41:00;109325.25;;;18.16;34.61
48555;BME280;34336;48.270;16.716;2023-03-16T13:43:28;109325.25;;;18.16;34.82
48555;BME280;34336;48.270;16.716;2023-03-16T13:45:57;109325.25;;;18.16;34.50
48555;BME280;34336;48.270;16.716;2023-03-16T13:48:23;109325.25;;;18.16;35.01
48555;BME280;34336;48.270;16.716;2023-03-16T13:50:50;109325.25;;;18.16;34.85
48555;BME280;34336;48.270;16.716;2023-03-16T13:53:20;109325.25;;;18.16;35.40
48555;BME280;34336;48.270;16.716;2023-03-16T13:55:48;109325.25;;;18.16;34.36
48555;BME280;34336;48.270;16.716;2023-03-16T13:58:19;109325.25;;;18.16;35.00
48555;BME280;34336;48.270;16.716;2023-03-16T14:00:47;109325.25;;;18.16;34.80